LRBC/BCM METAR and TAF weather

Enter ICAO airport designator
Station Type Date Time Source
LRBC METAR 2019/06/19 01:00 UTC NOAA

LRBC 190100Z 31004KT 280V350 9999 SCT050CB SCT060 20/19 Q1017


Station Type Date Time Source
LRBC Decoded METAR 2019/06/19 01:00 UTC NOAA

Bacau, Romania (LRBC) 46-35N 026-58E 190M
Jun 18, 2019 - 09:00 PM EDT / 2019.06.19 0100 UTC
Wind: from the NW (310 degrees) at 5 MPH (4 KT) (direction variable):0
Visibility: greater than 7 mile(s):0
Sky conditions: partly cloudy
Weather: Cumulonimbus clouds observed
Temperature: 68 F (20 C)
Dew Point: 66 F (19 C)
Relative Humidity: 93%
Pressure (altimeter): 30.03 in. Hg (1017 hPa)
ob: LRBC 190100Z 31004KT 280V350 9999 SCT050CB SCT060 20/19 Q1017
cycle: 1

Station Type Date Time Source
LRBC TAF 2010/08/31 20:30 UTC NOAA

TAF LRBC 312030Z 3121/0203 CNL

Example: see airport list